createdAt,value
2018-06-25T00:00:31.750Z,3.13
2018-06-25T00:03:08.280Z,3.40
2018-06-25T00:05:44.618Z,3.37
2018-06-25T00:08:20.898Z,3.30
2018-06-25T00:10:57.187Z,3.33
2018-06-25T00:13:33.682Z,4.03
2018-06-25T00:16:10.025Z,3.47
2018-06-25T00:18:46.791Z,3.53
2018-06-25T00:21:23.003Z,4.03
2018-06-25T00:23:59.473Z,3.57
2018-06-25T00:26:36.642Z,3.60
2018-06-25T00:29:13.302Z,3.77
2018-06-25T00:31:51.515Z,3.70
2018-06-25T00:34:27.911Z,3.60
2018-06-25T00:37:04.969Z,4.00
2018-06-25T00:39:41.397Z,3.80
2018-06-25T00:42:17.766Z,3.07
2018-06-25T00:44:54.198Z,3.60
2018-06-25T00:47:30.598Z,3.87
2018-06-25T00:50:07.060Z,3.43
2018-06-25T00:52:43.324Z,3.63
2018-06-25T00:55:20.049Z,3.13
2018-06-25T00:57:59.136Z,3.17
2018-06-25T01:00:36.422Z,3.77
2018-06-25T01:06:04.170Z,3.37
2018-06-25T01:08:40.361Z,4.03
2018-06-25T01:11:19.710Z,4.03
2018-06-25T01:13:56.355Z,3.50
2018-06-25T01:16:32.843Z,3.30
2018-06-25T01:19:09.154Z,3.50
2018-06-25T01:21:49.522Z,3.37
2018-06-25T01:24:25.700Z,3.53
2018-06-25T01:27:06.845Z,3.30
2018-06-25T01:29:43.118Z,3.93
2018-06-25T01:32:20.363Z,3.50
2018-06-25T01:34:57.598Z,3.27
2018-06-25T01:37:33.518Z,2.97
2018-06-25T01:40:09.562Z,3.10
2018-06-25T01:42:47.127Z,3.30
2018-06-25T01:45:23.403Z,3.00
2018-06-25T01:47:59.861Z,3.00
2018-06-25T01:50:36.567Z,2.67
2018-06-25T01:53:12.739Z,3.30
2018-06-25T01:55:48.733Z,3.30
2018-06-25T01:58:28.448Z,2.97
2018-06-25T02:01:05.905Z,3.23
2018-06-25T02:03:42.565Z,3.10
2018-06-25T02:06:19.085Z,2.97
2018-06-25T02:08:55.035Z,2.47
2018-06-25T02:11:33.162Z,3.60
2018-06-25T02:14:09.318Z,2.40
2018-06-25T02:16:46.005Z,3.33
2018-06-25T02:19:22.453Z,2.57
2018-06-25T02:21:58.451Z,2.43
2018-06-25T02:24:34.418Z,2.50
2018-06-25T02:27:10.612Z,2.40
2018-06-25T02:29:46.921Z,2.77
2018-06-25T02:32:23.943Z,2.60
2018-06-25T02:35:00.033Z,2.50
2018-06-25T02:37:36.079Z,2.57
2018-06-25T02:40:13.474Z,2.40
2018-06-25T02:42:49.805Z,3.07
2018-06-25T02:45:26.424Z,2.83
2018-06-25T02:48:02.741Z,2.70
2018-06-25T02:50:38.896Z,3.37
2018-06-25T02:53:15.156Z,3.73
2018-06-25T02:55:51.903Z,3.07
2018-06-25T02:58:28.302Z,3.33
2018-06-25T03:01:04.510Z,2.97
2018-06-25T03:03:40.933Z,3.40
2018-06-25T03:06:17.355Z,3.40
2018-06-25T03:08:53.306Z,3.60
2018-06-25T03:11:31.809Z,3.30
2018-06-25T03:14:08.868Z,3.37
2018-06-25T03:16:44.807Z,3.17
2018-06-25T03:19:22.262Z,3.93
2018-06-25T03:21:58.329Z,3.93
2018-06-25T03:24:34.932Z,3.70
2018-06-25T03:29:39.505Z,4.37
2018-06-25T03:32:15.681Z,4.47
2018-06-25T03:34:52.039Z,4.33
2018-06-25T03:37:28.488Z,4.53
2018-06-25T03:40:04.583Z,4.67
2018-06-25T03:42:40.611Z,3.73
2018-06-25T03:45:20.276Z,4.23
2018-06-25T03:47:56.715Z,4.00
2018-06-25T03:50:34.037Z,4.30
2018-06-25T03:53:10.271Z,4.87
2018-06-25T03:55:46.384Z,4.57
2018-06-25T03:58:24.660Z,5.00
2018-06-25T04:01:01.035Z,4.40
2018-06-25T04:03:37.669Z,5.03
2018-06-25T04:06:14.574Z,6.20
2018-06-25T04:08:51.791Z,6.43
2018-06-25T04:11:30.259Z,5.67
2018-06-25T04:14:06.429Z,6.13
2018-06-25T04:16:42.789Z,6.10
2018-06-25T04:19:18.845Z,6.23
2018-06-25T04:21:54.874Z,6.37
2018-06-25T04:24:30.996Z,5.80
2018-06-25T04:27:07.109Z,6.07
2018-06-25T04:29:47.048Z,5.73
2018-06-25T04:32:26.914Z,5.77
2018-06-25T04:35:04.174Z,5.50
2018-06-25T04:37:43.324Z,6.17
2018-06-25T04:40:19.962Z,5.43
2018-06-25T04:42:55.699Z,4.83
2018-06-25T04:45:34.337Z,5.33
2018-06-25T04:48:10.441Z,6.33
2018-06-25T04:50:46.661Z,6.40
2018-06-25T04:53:28.085Z,6.93
2018-06-25T04:56:07.271Z,5.70
2018-06-25T04:58:45.166Z,5.40
2018-06-25T05:01:27.544Z,6.53
2018-06-25T05:04:07.048Z,6.20
2018-06-25T05:06:46.897Z,6.37
2018-06-25T05:09:26.196Z,6.27
2018-06-25T05:12:02.472Z,6.73
2018-06-25T05:14:38.711Z,6.03
2018-06-25T05:17:14.878Z,6.77
2018-06-25T05:19:51.728Z,6.87
2018-06-25T05:22:31.249Z,6.33
2018-06-25T05:25:10.801Z,6.53
2018-06-25T05:27:53.178Z,7.20
2018-06-25T05:30:32.783Z,7.23
2018-06-25T05:33:12.834Z,7.00
2018-06-25T05:35:56.187Z,6.83
2018-06-25T05:38:32.702Z,7.03
2018-06-25T05:41:14.989Z,7.43
2018-06-25T05:43:52.509Z,6.60
2018-06-25T05:49:14.591Z,6.63
2018-06-25T05:51:54.142Z,6.63
2018-06-25T05:54:35.411Z,6.00
2018-06-25T05:57:14.900Z,6.37
2018-06-25T05:59:53.924Z,6.80
2018-06-25T06:02:36.007Z,6.80
2018-06-25T06:05:16.273Z,6.43
2018-06-25T06:07:55.589Z,6.60
2018-06-25T06:10:37.360Z,8.00
2018-06-25T06:13:17.197Z,7.47
2018-06-25T06:15:56.741Z,6.47
2018-06-25T06:18:38.897Z,7.97
2018-06-25T06:21:18.916Z,6.50
2018-06-25T06:23:57.056Z,6.13
2018-06-25T06:26:38.891Z,6.03
2018-06-25T06:29:16.326Z,5.80
2018-06-25T06:32:02.341Z,6.03
2018-06-25T06:34:38.641Z,6.47
2018-06-25T06:37:24.032Z,5.53
2018-06-25T06:40:01.999Z,5.23
2018-06-25T06:42:41.609Z,5.67
2018-06-25T06:45:25.703Z,5.33
2018-06-25T06:48:04.441Z,6.40
2018-06-25T06:50:41.059Z,5.53
2018-06-25T06:53:22.983Z,5.60
2018-06-25T06:55:59.620Z,5.70
2018-06-25T06:58:39.178Z,5.67
2018-06-25T07:01:19.130Z,5.70
2018-06-25T07:04:00.311Z,6.30
2018-06-25T07:06:40.482Z,5.00
2018-06-25T07:09:25.718Z,5.27
2018-06-25T07:12:05.250Z,5.03
2018-06-25T07:14:45.347Z,5.13
2018-06-25T07:17:24.338Z,4.67
2018-06-25T07:20:04.547Z,5.07
2018-06-25T07:22:44.293Z,5.40
2018-06-25T07:25:29.049Z,6.00
2018-06-25T07:28:05.504Z,5.93
2018-06-25T07:30:46.004Z,5.20
2018-06-25T07:33:28.656Z,5.30
2018-06-25T07:36:05.457Z,5.10
2018-06-25T07:38:48.956Z,5.37
2018-06-25T07:41:27.171Z,5.40
2018-06-25T07:46:51.583Z,4.60
2018-06-25T07:49:28.878Z,4.53
2018-06-25T07:52:12.092Z,5.03
2018-06-25T07:54:51.181Z,5.10
2018-06-25T07:57:27.857Z,4.53
2018-06-25T08:00:10.116Z,4.60
2018-06-25T08:02:49.447Z,3.80
2018-06-25T08:05:29.627Z,4.90
2018-06-25T08:08:12.359Z,4.00
2018-06-25T08:10:49.968Z,4.27
2018-06-25T08:13:32.208Z,3.60
2018-06-25T08:16:11.987Z,3.67
2018-06-25T08:18:52.275Z,4.13
2018-06-25T08:21:35.843Z,3.70
2018-06-25T08:24:12.425Z,4.03
2018-06-25T08:26:55.091Z,4.20
2018-06-25T08:29:33.020Z,4.00
2018-06-25T08:32:13.339Z,4.10
2018-06-25T08:34:53.752Z,4.03
2018-06-25T08:37:33.544Z,3.60
2018-06-25T08:40:16.597Z,4.47
2018-06-25T08:42:53.024Z,3.90
2018-06-25T08:45:36.145Z,3.00
2018-06-25T08:48:16.925Z,3.97
2018-06-25T08:50:54.800Z,3.30
2018-06-25T08:53:35.502Z,3.40
2018-06-25T08:56:15.338Z,3.00
2018-06-25T08:58:55.638Z,2.93
2018-06-25T09:01:38.608Z,2.70
2018-06-25T09:04:16.212Z,3.03
2018-06-25T09:07:02.453Z,3.20
2018-06-25T09:09:41.311Z,3.27
2018-06-25T09:12:17.463Z,3.53
2018-06-25T09:14:59.272Z,3.20
2018-06-25T09:17:39.405Z,3.10
2018-06-25T09:20:18.454Z,3.50
2018-06-25T09:23:02.491Z,3.00
2018-06-25T09:25:38.889Z,3.50
2018-06-25T09:28:19.508Z,3.20
2018-06-25T09:31:04.257Z,3.17
2018-06-25T09:33:41.017Z,3.00
2018-06-25T09:36:22.418Z,3.57
2018-06-25T09:38:58.682Z,3.80
2018-06-25T09:41:38.931Z,3.27
2018-06-25T09:44:21.407Z,3.60
2018-06-25T09:49:43.392Z,3.37
2018-06-25T09:52:23.518Z,3.33
2018-06-25T09:55:18.742Z,2.97
2018-06-25T09:57:59.162Z,3.07
2018-06-25T10:00:40.753Z,3.00
2018-06-25T10:06:26.490Z,3.43
2018-06-25T10:11:47.777Z,3.10
2018-06-25T10:14:29.525Z,3.43
2018-06-25T10:17:05.789Z,3.70
2018-06-25T10:19:47.997Z,3.07
2018-06-25T10:22:28.284Z,2.60
2018-06-25T10:25:06.134Z,2.90
2018-06-25T10:27:50.695Z,3.40
2018-06-25T10:30:27.003Z,3.23
2018-06-25T10:33:13.099Z,3.00
2018-06-25T10:35:49.409Z,2.80
2018-06-25T10:38:28.760Z,3.37
2018-06-25T10:41:24.571Z,3.27
2018-06-25T10:46:49.194Z,3.20
2018-06-25T10:52:11.675Z,3.03
2018-06-25T10:54:49.419Z,3.17
2018-06-25T10:57:30.533Z,3.17
2018-06-25T11:00:13.386Z,3.60
2018-06-25T11:02:51.331Z,3.50
2018-06-25T11:05:33.927Z,4.67
2018-06-25T11:08:10.478Z,3.80
2018-06-25T11:10:50.741Z,3.77
2018-06-25T11:13:33.442Z,3.83
2018-06-25T11:16:12.822Z,3.30
2018-06-25T11:18:58.833Z,3.00
2018-06-25T11:21:35.436Z,4.07
2018-06-25T11:24:13.471Z,3.50
2018-06-25T11:26:55.511Z,4.10
2018-06-25T11:29:31.998Z,3.30
2018-06-25T11:32:17.604Z,3.33
2018-06-25T11:34:56.493Z,2.83
2018-06-25T11:37:34.361Z,3.77
2018-06-25T11:40:18.053Z,3.60
2018-06-25T11:42:57.113Z,4.00
2018-06-25T11:45:38.749Z,3.40
2018-06-25T11:48:17.785Z,3.70
2018-06-25T11:50:54.892Z,3.80
2018-06-25T11:53:38.552Z,3.83
2018-06-25T11:56:16.673Z,3.80
2018-06-25T11:59:02.784Z,3.80
2018-06-25T12:01:42.335Z,3.43
2018-06-25T12:04:18.782Z,3.50
2018-06-25T12:06:59.989Z,4.13
2018-06-25T12:09:37.884Z,3.50
2018-06-25T12:12:20.205Z,3.60
2018-06-25T12:15:00.507Z,4.00
2018-06-25T12:17:44.774Z,3.87
2018-06-25T12:20:20.942Z,3.60
2018-06-25T12:23:01.427Z,3.80
2018-06-25T12:25:50.198Z,4.07
2018-06-25T12:28:26.303Z,3.47
2018-06-25T12:31:05.332Z,3.67
2018-06-25T12:33:46.936Z,3.80
2018-06-25T12:36:23.504Z,3.40
2018-06-25T12:39:01.258Z,4.27
2018-06-25T12:41:47.172Z,3.23
2018-06-25T12:44:23.567Z,3.87
2018-06-25T12:47:10.173Z,4.30
2018-06-25T12:49:47.301Z,4.00
2018-06-25T12:52:23.882Z,3.97
2018-06-25T12:55:06.164Z,4.60
2018-06-25T13:00:25.592Z,3.67
2018-06-25T13:03:11.244Z,4.23
2018-06-25T13:05:47.551Z,3.80
2018-06-25T13:08:28.735Z,4.90
2018-06-25T13:11:14.546Z,4.83
2018-06-25T13:13:51.259Z,4.40
2018-06-25T13:16:32.701Z,5.20
2018-06-25T13:19:09.521Z,4.17
2018-06-25T13:21:47.516Z,4.63
2018-06-25T13:24:31.476Z,4.87
2018-06-25T13:27:10.743Z,5.00
2018-06-25T13:29:51.061Z,4.57
2018-06-25T13:32:35.262Z,5.20
2018-06-25T13:35:11.742Z,4.80
2018-06-25T13:37:51.026Z,4.87
2018-06-25T13:40:30.810Z,4.50
2018-06-25T13:43:17.333Z,4.43
2018-06-25T13:45:53.962Z,4.93
2018-06-25T13:48:30.872Z,4.67
2018-06-25T13:51:13.630Z,4.90
2018-06-25T13:53:50.088Z,5.37
2018-06-25T13:56:35.658Z,5.13
2018-06-25T13:59:15.301Z,5.10
2018-06-25T14:02:09.114Z,4.80
2018-06-25T14:04:53.135Z,5.10
2018-06-25T14:10:16.879Z,4.67
2018-06-25T14:12:54.057Z,4.50
2018-06-25T14:15:33.984Z,4.87
2018-06-25T14:18:16.788Z,5.40
2018-06-25T14:20:55.938Z,5.40
2018-06-25T14:23:44.761Z,5.13
2018-06-25T14:26:23.181Z,5.27
2018-06-25T14:29:00.813Z,5.10
2018-06-25T14:31:42.989Z,5.43
2018-06-25T14:37:17.077Z,4.93
2018-06-25T14:39:57.120Z,5.10
2018-06-25T14:42:42.901Z,5.00
2018-06-25T14:45:20.967Z,3.97
2018-06-25T14:48:03.369Z,4.00
2018-06-25T14:50:43.263Z,4.03
2018-06-25T14:53:21.553Z,4.40
2018-06-25T14:56:03.769Z,4.33
2018-06-25T14:58:44.102Z,4.17
2018-06-25T15:01:24.079Z,4.57
2018-06-25T15:04:07.044Z,5.20
2018-06-25T15:06:43.580Z,4.20
2018-06-25T15:09:22.893Z,5.93
2018-06-25T15:12:02.139Z,4.50
2018-06-25T15:14:44.761Z,4.23
2018-06-25T15:17:23.902Z,4.20
2018-06-25T15:20:01.933Z,4.43
2018-06-25T15:22:48.001Z,3.80
2018-06-25T15:25:26.696Z,4.40
2018-06-25T15:28:03.067Z,4.53
2018-06-25T15:30:46.306Z,4.10
2018-06-25T15:33:23.217Z,4.00
2018-06-25T16:31:11.396Z,4.00
2018-06-25T16:33:55.349Z,4.92
2018-06-25T16:36:31.524Z,4.43
2018-06-25T16:39:11.467Z,4.27
2018-06-25T16:41:54.855Z,4.27
2018-06-25T16:44:33.753Z,5.07
2018-06-25T16:47:16.670Z,4.13
2018-06-25T16:49:55.790Z,4.47
2018-06-25T16:52:33.405Z,4.23
2018-06-25T16:55:13.257Z,8.50
2018-06-25T16:57:52.704Z,4.27
2018-06-25T17:00:35.161Z,4.20
2018-06-25T17:03:15.555Z,4.10
2018-06-25T17:05:55.709Z,4.97
2018-06-25T17:08:39.010Z,4.30
2018-06-25T17:11:16.327Z,4.03
2018-06-25T17:13:58.673Z,4.13
2018-06-25T17:19:14.808Z,4.10
2018-06-25T17:21:57.404Z,4.57
2018-06-25T17:24:39.316Z,4.30
2018-06-25T17:27:17.732Z,4.50
2018-06-25T17:29:59.148Z,4.07
2018-06-25T17:32:39.232Z,4.77
2018-06-25T17:35:19.139Z,4.50
2018-06-25T17:37:58.722Z,4.87
2018-06-25T17:40:38.636Z,4.33
2018-06-25T17:43:21.736Z,4.50
2018-06-25T17:45:59.637Z,4.83
2018-06-25T17:48:43.273Z,4.47
2018-06-25T17:51:19.738Z,3.97
2018-06-25T17:54:03.013Z,4.20
2018-06-25T17:56:40.973Z,4.70
2018-06-25T17:59:23.876Z,4.17
2018-06-25T18:02:00.842Z,4.30
2018-06-25T18:04:40.153Z,4.43
2018-06-25T18:07:23.737Z,4.30
2018-06-25T18:10:03.331Z,4.47
